Airfield :
LOGIN :

Register | Disclaimer

   EN    FR    IT 

 










Legend :    VFR   Marginal VFR   IFR   Intensive IFR   Very Intensive IFR
Visi :
Ceiling :
>= 8 km
>= 3000ft
5 to 8 km
1000 to 3000 ft
1500m to 5 km
500 to 1000 ft
800 to 1500m
200 to 500 ft
< 800m
< 200 ft
Symbols :   Thunderstorms  Fog  Heavy snow  Heavy precipitations  Wind > 20 kt
SIGMETs :     Misc.  Thunderstorms  Icing  Turbulence  Mountain Waves  Volcanic Ashes







- Airport Elevation : 348 ft
- IATA code : STN
- Download approach charts


EGSS - London Stansted

CURRENT METAR :
  • 181020Z AUTO 17016KT 9999 BKN018 09/06 Q1012

EXPIRED METARs :
  • 180950Z 18018KT 9999 BKN017 OVC023 09/06 Q1012
  • 180920Z AUTO 17016KT 9999 OVC015 09/07 Q1012
  • 180850Z AUTO 17016KT 9999 BKN015 OVC019 09/07 Q1012
  • 180820Z AUTO 16017KT 9999 OVC015 09/07 Q1012
  • 180750Z AUTO 16015KT 9999 OVC015 09/07 Q1012
  • 180720Z AUTO 17014KT 9999 OVC015 09/07 Q1013

TAF TAF EGSS
Valid from the 18 at 06:00 until the 19 at 12:00 UTC


180456Z 1806/1912 15012KT 9999 BKN018
BECMG 1806/1809 17015G25KT
TEMPO 1806/1812 BKN009
PROB30
TEMPO 1811/1822 18022G35KT
TEMPO 1818/1822 7000 RA
BECMG 1821/1824 20012KT
PROB30
TEMPO 1904/1912 20015G25KT 6000 SHRA BKN010
ATIS : +44 1279 669 325
No reported NOTAMs for that airfield.
2 SIGMETs reported for the London FIR (EGTT) :
 
Severe mountain waves
EGTT SIGMET 04 VALID 180700/181100 EGRR
EGTT LONDON FIR SEV MTW FCST WI N5220 W00530 - N5500 W00530 - N5500 W00015 - N5024 W00255 - N4959 W00548 - N5220 W00530 - N5220 W00530 FL030/250 STNR NC=
Severe turbulence
EGTT SIGMET 03 VALID 180700/181100 EGRR
EGTT LONDON FIR SEV TURB FCST WI N4850 W00800 - N5100 W00800 - N5220 W00530 - N5500 W00530 - N5500 W00247 - N5101 W00311 - N4958 W00208 - N4850 W00800 SFC/FL060 MOV E 10KT NC=



MET'MAP, your aeronautical weather chart ! - Copyright ORBIFLY December 2007 - Disclaimer

ORBIFLY MET'MAP TEAM :

Programming & Development : Alexandra Zaïnal
Concept & Development : Baudouin d'Aumeries
Co-Development & Prog : Marc-Olivier Méhu
Technical & hardware support : Manuel Goepfert

Contact : metmap@orbifly.com




SOURCES & CREDITS :

   NOAA